sensor_id;sensor_type;location;lat;lon;timestamp;temperature;humidity
23120;DHT22;11729;50.836;4.330;2023-09-08T00:02:06;23.40;99.90
23120;DHT22;11729;50.836;4.330;2023-09-08T00:04:32;23.40;99.90
23120;DHT22;11729;50.836;4.330;2023-09-08T00:07:01;23.40;99.90
23120;DHT22;11729;50.836;4.330;2023-09-08T00:09:27;23.40;99.90
23120;DHT22;11729;50.836;4.330;2023-09-08T00:11:52;23.30;99.90
23120;DHT22;11729;50.836;4.330;2023-09-08T00:14:19;23.30;99.90
23120;DHT22;11729;50.836;4.330;2023-09-08T00:16:45;23.20;99.90
23120;DHT22;11729;50.836;4.330;2023-09-08T00:19:11;23.20;99.90
23120;DHT22;11729;50.836;4.330;2023-09-08T00:21:36;23.20;99.90
23120;DHT22;11729;50.836;4.330;2023-09-08T00:24:02;23.20;99.90
23120;DHT22;11729;50.836;4.330;2023-09-08T00:26:29;23.20;99.90
23120;DHT22;11729;50.836;4.330;2023-09-08T00:28:55;23.10;99.90
23120;DHT22;11729;50.836;4.330;2023-09-08T00:31:21;23.10;99.90
23120;DHT22;11729;50.836;4.330;2023-09-08T00:33:46;23.10;99.90
23120;DHT22;11729;50.836;4.330;2023-09-08T00:36:12;23.10;99.90
23120;DHT22;11729;50.836;4.330;2023-09-08T00:38:37;23.00;99.90
23120;DHT22;11729;50.836;4.330;2023-09-08T00:41:04;23.00;99.90
23120;DHT22;11729;50.836;4.330;2023-09-08T00:43:30;23.00;99.90
23120;DHT22;11729;50.836;4.330;2023-09-08T00:45:57;23.00;99.90
23120;DHT22;11729;50.836;4.330;2023-09-08T00:48:24;23.00;99.90
23120;DHT22;11729;50.836;4.330;2023-09-08T00:50:50;23.00;99.90
23120;DHT22;11729;50.836;4.330;2023-09-08T00:53:16;23.00;99.90
23120;DHT22;11729;50.836;4.330;2023-09-08T00:55:42;22.90;99.90
23120;DHT22;11729;50.836;4.330;2023-09-08T00:58:09;22.90;99.90
23120;DHT22;11729;50.836;4.330;2023-09-08T01:00:35;22.90;99.90
23120;DHT22;11729;50.836;4.330;2023-09-08T01:03:01;22.90;99.90
23120;DHT22;11729;50.836;4.330;2023-09-08T01:05:28;22.90;99.90
23120;DHT22;11729;50.836;4.330;2023-09-08T01:07:54;22.90;99.90
23120;DHT22;11729;50.836;4.330;2023-09-08T01:10:21;22.80;99.90
23120;DHT22;11729;50.836;4.330;2023-09-08T01:12:46;22.80;99.90
23120;DHT22;11729;50.836;4.330;2023-09-08T01:15:12;22.80;99.90
23120;DHT22;11729;50.836;4.330;2023-09-08T01:17:38;22.80;99.90
23120;DHT22;11729;50.836;4.330;2023-09-08T01:22:45;22.80;99.90
23120;DHT22;11729;50.836;4.330;2023-09-08T01:25:25;22.80;99.90
23120;DHT22;11729;50.836;4.330;2023-09-08T01:27:57;22.70;99.90
23120;DHT22;11729;50.836;4.330;2023-09-08T01:30:27;22.70;99.90
23120;DHT22;11729;50.836;4.330;2023-09-08T01:32:54;22.70;99.90
23120;DHT22;11729;50.836;4.330;2023-09-08T01:35:20;22.70;99.90
23120;DHT22;11729;50.836;4.330;2023-09-08T01:37:48;22.60;99.90
23120;DHT22;11729;50.836;4.330;2023-09-08T01:40:14;22.70;99.90
23120;DHT22;11729;50.836;4.330;2023-09-08T01:42:40;22.60;99.90
23120;DHT22;11729;50.836;4.330;2023-09-08T01:45:07;22.70;99.90
23120;DHT22;11729;50.836;4.330;2023-09-08T01:47:33;22.60;99.90
23120;DHT22;11729;50.836;4.330;2023-09-08T01:49:59;22.60;99.90
23120;DHT22;11729;50.836;4.330;2023-09-08T01:52:25;22.60;99.90
23120;DHT22;11729;50.836;4.330;2023-09-08T01:54:51;22.60;99.90
23120;DHT22;11729;50.836;4.330;2023-09-08T01:57:17;22.60;99.90
23120;DHT22;11729;50.836;4.330;2023-09-08T01:59:42;22.60;99.90
23120;DHT22;11729;50.836;4.330;2023-09-08T02:02:10;22.50;99.90
23120;DHT22;11729;50.836;4.330;2023-09-08T02:04:37;22.50;99.90
23120;DHT22;11729;50.836;4.330;2023-09-08T02:07:03;22.50;99.90
23120;DHT22;11729;50.836;4.330;2023-09-08T02:09:34;22.50;99.90
23120;DHT22;11729;50.836;4.330;2023-09-08T02:12:01;22.40;99.90
23120;DHT22;11729;50.836;4.330;2023-09-08T02:14:26;22.40;99.90
23120;DHT22;11729;50.836;4.330;2023-09-08T02:16:53;22.40;99.90
23120;DHT22;11729;50.836;4.330;2023-09-08T02:19:19;22.40;99.90
23120;DHT22;11729;50.836;4.330;2023-09-08T02:21:45;22.30;99.90
23120;DHT22;11729;50.836;4.330;2023-09-08T02:24:10;22.30;99.90
23120;DHT22;11729;50.836;4.330;2023-09-08T02:26:37;22.30;99.90
23120;DHT22;11729;50.836;4.330;2023-09-08T02:29:03;22.20;99.90
23120;DHT22;11729;50.836;4.330;2023-09-08T02:31:28;22.20;99.90
23120;DHT22;11729;50.836;4.330;2023-09-08T02:33:54;22.20;99.90
23120;DHT22;11729;50.836;4.330;2023-09-08T02:36:19;22.20;99.90
23120;DHT22;11729;50.836;4.330;2023-09-08T02:38:54;22.20;99.90
23120;DHT22;11729;50.836;4.330;2023-09-08T02:41:20;22.10;99.90
23120;DHT22;11729;50.836;4.330;2023-09-08T02:43:46;22.10;99.90
23120;DHT22;11729;50.836;4.330;2023-09-08T02:46:11;22.20;99.90
23120;DHT22;11729;50.836;4.330;2023-09-08T02:48:38;22.10;99.90
23120;DHT22;11729;50.836;4.330;2023-09-08T02:51:03;22.10;99.90
23120;DHT22;11729;50.836;4.330;2023-09-08T02:53:29;22.10;99.90
23120;DHT22;11729;50.836;4.330;2023-09-08T02:55:55;22.10;99.90
23120;DHT22;11729;50.836;4.330;2023-09-08T02:58:21;22.00;99.90
23120;DHT22;11729;50.836;4.330;2023-09-08T03:00:47;22.00;99.90
23120;DHT22;11729;50.836;4.330;2023-09-08T03:03:13;22.00;99.90
23120;DHT22;11729;50.836;4.330;2023-09-08T03:05:38;21.90;99.90
23120;DHT22;11729;50.836;4.330;2023-09-08T03:08:04;21.90;99.90
23120;DHT22;11729;50.836;4.330;2023-09-08T03:10:33;21.90;99.90
23120;DHT22;11729;50.836;4.330;2023-09-08T03:13:06;21.90;99.90
23120;DHT22;11729;50.836;4.330;2023-09-08T03:15:31;21.90;99.90
23120;DHT22;11729;50.836;4.330;2023-09-08T03:17:58;21.90;99.90
23120;DHT22;11729;50.836;4.330;2023-09-08T03:20:24;21.80;99.90
23120;DHT22;11729;50.836;4.330;2023-09-08T03:22:52;21.80;99.90
23120;DHT22;11729;50.836;4.330;2023-09-08T03:25:17;21.80;99.90
23120;DHT22;11729;50.836;4.330;2023-09-08T03:27:43;21.80;99.90
23120;DHT22;11729;50.836;4.330;2023-09-08T03:30:09;21.80;99.90
23120;DHT22;11729;50.836;4.330;2023-09-08T03:32:35;21.80;99.90
23120;DHT22;11729;50.836;4.330;2023-09-08T03:35:01;21.70;99.90
23120;DHT22;11729;50.836;4.330;2023-09-08T03:37:26;21.70;99.90
23120;DHT22;11729;50.836;4.330;2023-09-08T03:39:52;21.70;99.90
23120;DHT22;11729;50.836;4.330;2023-09-08T03:42:18;21.70;99.90
23120;DHT22;11729;50.836;4.330;2023-09-08T03:44:44;21.70;99.90
23120;DHT22;11729;50.836;4.330;2023-09-08T03:47:10;21.70;99.90
23120;DHT22;11729;50.836;4.330;2023-09-08T03:49:35;21.70;99.90
23120;DHT22;11729;50.836;4.330;2023-09-08T03:52:01;21.60;99.90
23120;DHT22;11729;50.836;4.330;2023-09-08T03:54:27;21.60;99.90
23120;DHT22;11729;50.836;4.330;2023-09-08T03:56:52;21.60;99.90
23120;DHT22;11729;50.836;4.330;2023-09-08T03:59:18;21.60;99.90
23120;DHT22;11729;50.836;4.330;2023-09-08T04:01:43;21.60;99.90
23120;DHT22;11729;50.836;4.330;2023-09-08T04:04:09;21.60;99.90
23120;DHT22;11729;50.836;4.330;2023-09-08T04:06:35;21.60;99.90
23120;DHT22;11729;50.836;4.330;2023-09-08T04:09:00;21.60;99.90
23120;DHT22;11729;50.836;4.330;2023-09-08T04:11:26;21.50;99.90
23120;DHT22;11729;50.836;4.330;2023-09-08T04:13:52;21.50;99.90
23120;DHT22;11729;50.836;4.330;2023-09-08T04:16:18;21.50;99.90
23120;DHT22;11729;50.836;4.330;2023-09-08T04:18:43;21.50;99.90
23120;DHT22;11729;50.836;4.330;2023-09-08T04:21:10;21.50;99.90
23120;DHT22;11729;50.836;4.330;2023-09-08T04:23:35;21.50;99.90
23120;DHT22;11729;50.836;4.330;2023-09-08T04:26:01;21.40;99.90
23120;DHT22;11729;50.836;4.330;2023-09-08T04:28:27;21.40;99.90
23120;DHT22;11729;50.836;4.330;2023-09-08T04:30:52;21.40;99.90
23120;DHT22;11729;50.836;4.330;2023-09-08T04:33:18;21.40;99.90
23120;DHT22;11729;50.836;4.330;2023-09-08T04:35:43;21.40;99.90
23120;DHT22;11729;50.836;4.330;2023-09-08T04:38:09;21.40;99.90
23120;DHT22;11729;50.836;4.330;2023-09-08T04:40:35;21.40;99.90
23120;DHT22;11729;50.836;4.330;2023-09-08T04:43:00;21.40;99.90
23120;DHT22;11729;50.836;4.330;2023-09-08T04:45:26;21.40;99.90
23120;DHT22;11729;50.836;4.330;2023-09-08T04:47:52;21.30;99.90
23120;DHT22;11729;50.836;4.330;2023-09-08T04:50:17;21.40;99.90
23120;DHT22;11729;50.836;4.330;2023-09-08T04:52:43;21.30;99.90
23120;DHT22;11729;50.836;4.330;2023-09-08T04:55:09;21.30;99.90
23120;DHT22;11729;50.836;4.330;2023-09-08T04:57:35;21.40;99.90
23120;DHT22;11729;50.836;4.330;2023-09-08T05:00:02;21.60;99.90
23120;DHT22;11729;50.836;4.330;2023-09-08T05:02:27;21.60;99.90
23120;DHT22;11729;50.836;4.330;2023-09-08T05:04:53;21.70;99.90
23120;DHT22;11729;50.836;4.330;2023-09-08T05:07:19;21.70;99.90
23120;DHT22;11729;50.836;4.330;2023-09-08T05:09:44;21.80;99.90
23120;DHT22;11729;50.836;4.330;2023-09-08T05:12:10;21.90;99.90
23120;DHT22;11729;50.836;4.330;2023-09-08T05:14:36;21.90;99.90
23120;DHT22;11729;50.836;4.330;2023-09-08T05:17:01;21.70;99.90
23120;DHT22;11729;50.836;4.330;2023-09-08T05:19:27;21.70;99.90
23120;DHT22;11729;50.836;4.330;2023-09-08T05:21:54;21.70;99.90
23120;DHT22;11729;50.836;4.330;2023-09-08T05:24:20;21.70;99.90
23120;DHT22;11729;50.836;4.330;2023-09-08T05:26:46;21.70;99.90
23120;DHT22;11729;50.836;4.330;2023-09-08T05:29:12;21.60;99.90
23120;DHT22;11729;50.836;4.330;2023-09-08T05:31:38;21.60;99.90
23120;DHT22;11729;50.836;4.330;2023-09-08T05:34:03;21.60;99.90
23120;DHT22;11729;50.836;4.330;2023-09-08T05:36:29;21.60;99.90
23120;DHT22;11729;50.836;4.330;2023-09-08T05:38:55;21.60;99.90
23120;DHT22;11729;50.836;4.330;2023-09-08T05:41:21;21.60;99.90
23120;DHT22;11729;50.836;4.330;2023-09-08T05:43:47;21.60;99.90
23120;DHT22;11729;50.836;4.330;2023-09-08T05:46:12;21.60;99.90
23120;DHT22;11729;50.836;4.330;2023-09-08T05:48:38;21.60;99.90
23120;DHT22;11729;50.836;4.330;2023-09-08T05:51:04;21.60;99.90
23120;DHT22;11729;50.836;4.330;2023-09-08T05:53:32;21.70;99.90
23120;DHT22;11729;50.836;4.330;2023-09-08T05:55:58;21.80;99.90
23120;DHT22;11729;50.836;4.330;2023-09-08T05:58:23;21.80;99.90
23120;DHT22;11729;50.836;4.330;2023-09-08T06:00:55;21.70;99.90
23120;DHT22;11729;50.836;4.330;2023-09-08T06:03:21;21.70;99.90
23120;DHT22;11729;50.836;4.330;2023-09-08T06:05:46;21.80;99.90
23120;DHT22;11729;50.836;4.330;2023-09-08T06:08:12;21.90;99.90
23120;DHT22;11729;50.836;4.330;2023-09-08T06:10:38;21.90;99.90
23120;DHT22;11729;50.836;4.330;2023-09-08T06:13:04;22.00;99.90
23120;DHT22;11729;50.836;4.330;2023-09-08T06:15:30;22.00;99.90
23120;DHT22;11729;50.836;4.330;2023-09-08T06:17:55;22.10;99.90
23120;DHT22;11729;50.836;4.330;2023-09-08T06:20:21;22.00;99.90
23120;DHT22;11729;50.836;4.330;2023-09-08T06:22:47;22.20;99.90
23120;DHT22;11729;50.836;4.330;2023-09-08T06:25:13;22.20;99.90
23120;DHT22;11729;50.836;4.330;2023-09-08T06:27:39;22.30;99.90
23120;DHT22;11729;50.836;4.330;2023-09-08T06:30:05;22.50;99.90
23120;DHT22;11729;50.836;4.330;2023-09-08T06:32:31;22.70;99.90
23120;DHT22;11729;50.836;4.330;2023-09-08T06:34:57;23.00;99.90
23120;DHT22;11729;50.836;4.330;2023-09-08T06:37:22;24.30;99.90
23120;DHT22;11729;50.836;4.330;2023-09-08T06:39:48;26.00;99.90
23120;DHT22;11729;50.836;4.330;2023-09-08T06:42:13;27.80;99.90
23120;DHT22;11729;50.836;4.330;2023-09-08T06:44:39;29.30;99.90
23120;DHT22;11729;50.836;4.330;2023-09-08T06:47:05;30.70;99.90
23120;DHT22;11729;50.836;4.330;2023-09-08T06:49:32;31.80;99.90
23120;DHT22;11729;50.836;4.330;2023-09-08T06:51:58;33.20;99.90
23120;DHT22;11729;50.836;4.330;2023-09-08T06:54:24;34.30;97.70
23120;DHT22;11729;50.836;4.330;2023-09-08T06:56:49;35.20;94.50
23120;DHT22;11729;50.836;4.330;2023-09-08T06:59:15;35.80;91.50
23120;DHT22;11729;50.836;4.330;2023-09-08T07:01:41;36.50;89.20
23120;DHT22;11729;50.836;4.330;2023-09-08T07:04:06;37.20;84.60
23120;DHT22;11729;50.836;4.330;2023-09-08T07:06:32;37.90;80.30
23120;DHT22;11729;50.836;4.330;2023-09-08T07:08:57;38.60;76.20
23120;DHT22;11729;50.836;4.330;2023-09-08T07:11:24;39.20;73.10
23120;DHT22;11729;50.836;4.330;2023-09-08T07:13:50;39.70;70.30
23120;DHT22;11729;50.836;4.330;2023-09-08T07:16:15;40.20;67.30
23120;DHT22;11729;50.836;4.330;2023-09-08T07:18:41;40.70;65.70
23120;DHT22;11729;50.836;4.330;2023-09-08T07:21:06;40.90;62.70
23120;DHT22;11729;50.836;4.330;2023-09-08T07:23:32;41.10;62.40
23120;DHT22;11729;50.836;4.330;2023-09-08T07:25:58;41.00;61.50
23120;DHT22;11729;50.836;4.330;2023-09-08T07:28:23;40.90;60.90
23120;DHT22;11729;50.836;4.330;2023-09-08T07:30:49;40.50;60.20
23120;DHT22;11729;50.836;4.330;2023-09-08T07:33:14;39.70;61.80
23120;DHT22;11729;50.836;4.330;2023-09-08T07:35:40;39.30;62.60
23120;DHT22;11729;50.836;4.330;2023-09-08T07:38:06;39.30;62.30
23120;DHT22;11729;50.836;4.330;2023-09-08T07:40:35;39.40;62.00
23120;DHT22;11729;50.836;4.330;2023-09-08T07:43:01;39.30;62.40
23120;DHT22;11729;50.836;4.330;2023-09-08T07:45:26;39.20;62.10
23120;DHT22;11729;50.836;4.330;2023-09-08T07:47:52;39.30;61.80
23120;DHT22;11729;50.836;4.330;2023-09-08T07:50:22;38.90;61.40
23120;DHT22;11729;50.836;4.330;2023-09-08T07:52:52;38.20;63.70
23120;DHT22;11729;50.836;4.330;2023-09-08T07:55:19;38.10;65.60
23120;DHT22;11729;50.836;4.330;2023-09-08T07:57:45;38.40;65.30
23120;DHT22;11729;50.836;4.330;2023-09-08T08:00:11;38.30;66.00
23120;DHT22;11729;50.836;4.330;2023-09-08T08:02:47;38.70;64.80
23120;DHT22;11729;50.836;4.330;2023-09-08T08:05:13;39.00;64.00
23120;DHT22;11729;50.836;4.330;2023-09-08T08:07:40;39.10;63.00
23120;DHT22;11729;50.836;4.330;2023-09-08T08:10:10;39.50;62.60
23120;DHT22;11729;50.836;4.330;2023-09-08T08:12:37;38.90;62.80
23120;DHT22;11729;50.836;4.330;2023-09-08T08:15:03;39.40;62.80
23120;DHT22;11729;50.836;4.330;2023-09-08T08:17:30;38.60;62.80
23120;DHT22;11729;50.836;4.330;2023-09-08T08:19:56;37.90;64.70
23120;DHT22;11729;50.836;4.330;2023-09-08T08:22:27;38.50;65.80
23120;DHT22;11729;50.836;4.330;2023-09-08T08:24:52;38.90;63.70
23120;DHT22;11729;50.836;4.330;2023-09-08T08:27:18;39.10;63.70
23120;DHT22;11729;50.836;4.330;2023-09-08T08:29:44;39.70;63.00
23120;DHT22;11729;50.836;4.330;2023-09-08T08:32:09;39.70;62.60
23120;DHT22;11729;50.836;4.330;2023-09-08T08:34:35;39.70;62.20
23120;DHT22;11729;50.836;4.330;2023-09-08T08:37:00;39.70;61.80
23120;DHT22;11729;50.836;4.330;2023-09-08T08:39:27;39.80;61.40
23120;DHT22;11729;50.836;4.330;2023-09-08T08:41:53;39.70;62.90
23120;DHT22;11729;50.836;4.330;2023-09-08T08:44:19;39.70;62.70
23120;DHT22;11729;50.836;4.330;2023-09-08T08:46:46;40.10;62.30
23120;DHT22;11729;50.836;4.330;2023-09-08T08:49:15;40.70;60.80
23120;DHT22;11729;50.836;4.330;2023-09-08T08:51:44;40.70;60.80
23120;DHT22;11729;50.836;4.330;2023-09-08T08:54:14;40.20;61.40
23120;DHT22;11729;50.836;4.330;2023-09-08T08:56:41;40.80;61.50
23120;DHT22;11729;50.836;4.330;2023-09-08T08:59:07;40.50;60.40
23120;DHT22;11729;50.836;4.330;2023-09-08T09:01:34;40.80;60.10
23120;DHT22;11729;50.836;4.330;2023-09-08T09:04:00;40.90;60.00
23120;DHT22;11729;50.836;4.330;2023-09-08T09:06:26;39.90;61.00
23120;DHT22;11729;50.836;4.330;2023-09-08T09:08:52;39.40;61.50
23120;DHT22;11729;50.836;4.330;2023-09-08T09:11:17;39.90;61.00
23120;DHT22;11729;50.836;4.330;2023-09-08T09:13:43;40.10;62.90
23120;DHT22;11729;50.836;4.330;2023-09-08T09:16:09;40.30;60.60
23120;DHT22;11729;50.836;4.330;2023-09-08T09:18:54;40.40;60.50
23120;DHT22;11729;50.836;4.330;2023-09-08T09:21:21;40.40;62.00
23120;DHT22;11729;50.836;4.330;2023-09-08T09:23:46;39.80;59.70
23120;DHT22;11729;50.836;4.330;2023-09-08T09:26:23;38.10;66.70
23120;DHT22;11729;50.836;4.330;2023-09-08T09:28:50;38.80;65.60
23120;DHT22;11729;50.836;4.330;2023-09-08T09:31:18;39.70;62.90
23120;DHT22;11729;50.836;4.330;2023-09-08T09:33:44;39.50;63.50
23120;DHT22;11729;50.836;4.330;2023-09-08T09:36:20;40.00;60.80
23120;DHT22;11729;50.836;4.330;2023-09-08T09:38:47;40.30;60.30
23120;DHT22;11729;50.836;4.330;2023-09-08T09:41:12;40.40;60.00
23120;DHT22;11729;50.836;4.330;2023-09-08T09:43:38;40.60;60.00
23120;DHT22;11729;50.836;4.330;2023-09-08T09:46:07;39.80;61.00
23120;DHT22;11729;50.836;4.330;2023-09-08T09:48:35;40.50;60.40
23120;DHT22;11729;50.836;4.330;2023-09-08T09:51:18;40.40;61.90
23120;DHT22;11729;50.836;4.330;2023-09-08T09:53:45;40.60;59.10
23120;DHT22;11729;50.836;4.330;2023-09-08T09:56:11;41.30;59.30
23120;DHT22;11729;50.836;4.330;2023-09-08T09:58:37;41.70;59.60
23120;DHT22;11729;50.836;4.330;2023-09-08T10:01:04;42.20;57.40
23120;DHT22;11729;50.836;4.330;2023-09-08T10:03:31;42.00;58.30
23120;DHT22;11729;50.836;4.330;2023-09-08T10:06:00;42.30;57.10
23120;DHT22;11729;50.836;4.330;2023-09-08T10:08:27;42.20;56.70
23120;DHT22;11729;50.836;4.330;2023-09-08T10:10:54;42.40;58.00
23120;DHT22;11729;50.836;4.330;2023-09-08T10:13:27;42.40;56.80
23120;DHT22;11729;50.836;4.330;2023-09-08T10:15:58;42.60;56.50
23120;DHT22;11729;50.836;4.330;2023-09-08T10:18:24;42.40;55.20
23120;DHT22;11729;50.836;4.330;2023-09-08T10:20:53;42.50;56.50
23120;DHT22;11729;50.836;4.330;2023-09-08T10:23:22;43.00;55.10
23120;DHT22;11729;50.836;4.330;2023-09-08T10:25:53;42.80;55.60
23120;DHT22;11729;50.836;4.330;2023-09-08T10:28:22;42.80;54.30
23120;DHT22;11729;50.836;4.330;2023-09-08T10:30:49;42.60;54.10
23120;DHT22;11729;50.836;4.330;2023-09-08T10:33:15;42.90;54.70
23120;DHT22;11729;50.836;4.330;2023-09-08T10:35:42;42.80;55.60
23120;DHT22;11729;50.836;4.330;2023-09-08T10:38:21;42.70;54.80
23120;DHT22;11729;50.836;4.330;2023-09-08T10:40:47;42.80;54.90
23120;DHT22;11729;50.836;4.330;2023-09-08T10:43:13;42.70;55.70
23120;DHT22;11729;50.836;4.330;2023-09-08T10:45:39;42.90;55.70
23120;DHT22;11729;50.836;4.330;2023-09-08T10:48:07;43.20;56.40
23120;DHT22;11729;50.836;4.330;2023-09-08T10:50:34;43.00;54.60
23120;DHT22;11729;50.836;4.330;2023-09-08T10:53:17;41.40;55.30
23120;DHT22;11729;50.836;4.330;2023-09-08T10:55:47;42.10;57.40
23120;DHT22;11729;50.836;4.330;2023-09-08T10:58:30;42.70;56.70
23120;DHT22;11729;50.836;4.330;2023-09-08T11:00:59;42.90;55.60
23120;DHT22;11729;50.836;4.330;2023-09-08T11:06:07;43.10;51.30
23120;DHT22;11729;50.836;4.330;2023-09-08T11:08:34;42.40;51.90
23120;DHT22;11729;50.836;4.330;2023-09-08T11:11:01;42.10;54.60
23120;DHT22;11729;50.836;4.330;2023-09-08T11:13:27;42.00;53.90
23120;DHT22;11729;50.836;4.330;2023-09-08T11:15:54;42.50;54.50
23120;DHT22;11729;50.836;4.330;2023-09-08T11:18:32;43.00;54.00
23120;DHT22;11729;50.836;4.330;2023-09-08T11:21:00;43.50;52.50
23120;DHT22;11729;50.836;4.330;2023-09-08T11:23:28;43.70;50.80
23120;DHT22;11729;50.836;4.330;2023-09-08T11:25:53;43.80;50.30
23120;DHT22;11729;50.836;4.330;2023-09-08T11:28:21;43.70;50.40
23120;DHT22;11729;50.836;4.330;2023-09-08T11:30:48;43.50;50.40
23120;DHT22;11729;50.836;4.330;2023-09-08T11:33:24;42.30;50.20
23120;DHT22;11729;50.836;4.330;2023-09-08T11:35:51;42.40;51.50
23120;DHT22;11729;50.836;4.330;2023-09-08T11:38:17;42.10;50.90
23120;DHT22;11729;50.836;4.330;2023-09-08T11:40:43;41.10;52.10
23120;DHT22;11729;50.836;4.330;2023-09-08T11:43:09;41.30;55.30
23120;DHT22;11729;50.836;4.330;2023-09-08T11:45:35;41.60;53.60
23120;DHT22;11729;50.836;4.330;2023-09-08T11:48:04;42.20;53.80
23120;DHT22;11729;50.836;4.330;2023-09-08T11:50:31;42.20;51.00
23120;DHT22;11729;50.836;4.330;2023-09-08T11:52:56;42.30;52.10
23120;DHT22;11729;50.836;4.330;2023-09-08T11:55:24;42.40;53.60
23120;DHT22;11729;50.836;4.330;2023-09-08T11:57:52;42.20;52.70
23120;DHT22;11729;50.836;4.330;2023-09-08T12:00:28;42.10;51.50
23120;DHT22;11729;50.836;4.330;2023-09-08T12:02:55;41.30;53.10
23120;DHT22;11729;50.836;4.330;2023-09-08T12:05:27;41.80;55.20
23120;DHT22;11729;50.836;4.330;2023-09-08T12:07:57;42.30;52.90
23120;DHT22;11729;50.836;4.330;2023-09-08T12:10:24;42.10;51.30
23120;DHT22;11729;50.836;4.330;2023-09-08T12:12:52;41.60;51.70
23120;DHT22;11729;50.836;4.330;2023-09-08T12:15:38;41.60;55.20
23120;DHT22;11729;50.836;4.330;2023-09-08T12:20:31;42.00;52.00
23120;DHT22;11729;50.836;4.330;2023-09-08T12:22:58;42.30;51.60
23120;DHT22;11729;50.836;4.330;2023-09-08T12:25:24;42.00;51.10
23120;DHT22;11729;50.836;4.330;2023-09-08T12:27:50;42.20;53.90
23120;DHT22;11729;50.836;4.330;2023-09-08T12:30:18;42.60;50.90
23120;DHT22;11729;50.836;4.330;2023-09-08T12:32:46;42.80;52.30
23120;DHT22;11729;50.836;4.330;2023-09-08T12:35:22;43.00;53.60
23120;DHT22;11729;50.836;4.330;2023-09-08T12:38:08;43.10;51.40
23120;DHT22;11729;50.836;4.330;2023-09-08T12:40:36;42.90;51.00
23120;DHT22;11729;50.836;4.330;2023-09-08T12:43:03;42.40;52.10
23120;DHT22;11729;50.836;4.330;2023-09-08T12:45:28;42.80;53.00
23120;DHT22;11729;50.836;4.330;2023-09-08T12:47:54;42.80;51.20
23120;DHT22;11729;50.836;4.330;2023-09-08T12:50:24;42.60;52.40
23120;DHT22;11729;50.836;4.330;2023-09-08T12:52:50;42.00;52.50
23120;DHT22;11729;50.836;4.330;2023-09-08T12:55:16;41.30;51.90
23120;DHT22;11729;50.836;4.330;2023-09-08T12:57:41;40.70;53.90
23120;DHT22;11729;50.836;4.330;2023-09-08T13:00:07;40.50;52.60
23120;DHT22;11729;50.836;4.330;2023-09-08T13:02:33;40.80;56.90
23120;DHT22;11729;50.836;4.330;2023-09-08T13:04:59;40.90;53.40
23120;DHT22;11729;50.836;4.330;2023-09-08T13:07:26;40.90;54.50
23120;DHT22;11729;50.836;4.330;2023-09-08T13:09:52;41.50;55.00
23120;DHT22;11729;50.836;4.330;2023-09-08T13:12:17;41.70;54.60
23120;DHT22;11729;50.836;4.330;2023-09-08T13:14:43;41.90;54.50
23120;DHT22;11729;50.836;4.330;2023-09-08T13:17:10;42.10;54.10
23120;DHT22;11729;50.836;4.330;2023-09-08T13:19:36;42.00;51.50
23120;DHT22;11729;50.836;4.330;2023-09-08T13:22:04;42.00;54.00
23120;DHT22;11729;50.836;4.330;2023-09-08T13:24:30;42.40;52.70
23120;DHT22;11729;50.836;4.330;2023-09-08T13:26:56;42.60;52.80
23120;DHT22;11729;50.836;4.330;2023-09-08T13:29:22;42.60;51.80
23120;DHT22;11729;50.836;4.330;2023-09-08T13:31:48;42.50;51.60
23120;DHT22;11729;50.836;4.330;2023-09-08T13:34:13;42.90;51.40
23120;DHT22;11729;50.836;4.330;2023-09-08T13:36:39;43.00;51.60
23120;DHT22;11729;50.836;4.330;2023-09-08T13:39:05;42.50;51.20
23120;DHT22;11729;50.836;4.330;2023-09-08T13:41:53;42.30;52.20
23120;DHT22;11729;50.836;4.330;2023-09-08T13:44:20;42.00;52.60
23120;DHT22;11729;50.836;4.330;2023-09-08T13:46:47;41.80;52.70
23120;DHT22;11729;50.836;4.330;2023-09-08T13:49:13;41.10;53.00
23120;DHT22;11729;50.836;4.330;2023-09-08T13:51:38;40.10;55.60
23120;DHT22;11729;50.836;4.330;2023-09-08T13:54:04;39.70;54.80
23120;DHT22;11729;50.836;4.330;2023-09-08T13:56:30;39.20;56.70
23120;DHT22;11729;50.836;4.330;2023-09-08T13:58:58;38.90;57.60
23120;DHT22;11729;50.836;4.330;2023-09-08T14:01:24;37.60;58.50
23120;DHT22;11729;50.836;4.330;2023-09-08T14:03:50;36.80;62.10
23120;DHT22;11729;50.836;4.330;2023-09-08T14:06:17;36.30;62.60
23120;DHT22;11729;50.836;4.330;2023-09-08T14:08:44;35.90;64.00
23120;DHT22;11729;50.836;4.330;2023-09-08T14:11:10;35.70;63.80
23120;DHT22;11729;50.836;4.330;2023-09-08T14:13:35;35.30;65.50
23120;DHT22;11729;50.836;4.330;2023-09-08T14:16:01;35.00;67.20
23120;DHT22;11729;50.836;4.330;2023-09-08T14:18:27;34.90;67.40
23120;DHT22;11729;50.836;4.330;2023-09-08T14:20:53;34.90;68.60
23120;DHT22;11729;50.836;4.330;2023-09-08T14:23:18;34.70;69.70
23120;DHT22;11729;50.836;4.330;2023-09-08T14:25:44;34.70;69.50
23120;DHT22;11729;50.836;4.330;2023-09-08T14:28:10;34.60;71.20
23120;DHT22;11729;50.836;4.330;2023-09-08T14:30:35;34.30;70.90
23120;DHT22;11729;50.836;4.330;2023-09-08T14:33:01;34.30;71.40
23120;DHT22;11729;50.836;4.330;2023-09-08T14:35:26;34.30;73.00
23120;DHT22;11729;50.836;4.330;2023-09-08T14:37:52;34.10;73.80
23120;DHT22;11729;50.836;4.330;2023-09-08T14:40:18;33.90;75.70
23120;DHT22;11729;50.836;4.330;2023-09-08T14:42:43;34.00;74.40
23120;DHT22;11729;50.836;4.330;2023-09-08T14:45:09;34.00;75.10
23120;DHT22;11729;50.836;4.330;2023-09-08T14:47:35;33.90;74.30
23120;DHT22;11729;50.836;4.330;2023-09-08T14:50:01;33.80;75.70
23120;DHT22;11729;50.836;4.330;2023-09-08T14:52:28;33.80;76.30
23120;DHT22;11729;50.836;4.330;2023-09-08T14:54:54;33.70;77.00
23120;DHT22;11729;50.836;4.330;2023-09-08T14:57:19;33.60;77.00
23120;DHT22;11729;50.836;4.330;2023-09-08T14:59:45;33.60;77.50
23120;DHT22;11729;50.836;4.330;2023-09-08T15:02:10;33.30;77.90
23120;DHT22;11729;50.836;4.330;2023-09-08T15:04:37;33.40;78.70
23120;DHT22;11729;50.836;4.330;2023-09-08T15:07:03;33.40;77.50
23120;DHT22;11729;50.836;4.330;2023-09-08T15:09:29;33.40;77.20
23120;DHT22;11729;50.836;4.330;2023-09-08T15:11:54;33.60;77.10
23120;DHT22;11729;50.836;4.330;2023-09-08T15:14:20;33.50;78.00
23120;DHT22;11729;50.836;4.330;2023-09-08T15:16:46;33.40;78.20
23120;DHT22;11729;50.836;4.330;2023-09-08T15:19:11;33.30;80.10
23120;DHT22;11729;50.836;4.330;2023-09-08T15:21:37;33.10;80.20
23120;DHT22;11729;50.836;4.330;2023-09-08T15:24:04;33.10;80.70
23120;DHT22;11729;50.836;4.330;2023-09-08T15:26:30;33.10;81.30
23120;DHT22;11729;50.836;4.330;2023-09-08T15:28:56;33.00;81.50
23120;DHT22;11729;50.836;4.330;2023-09-08T15:31:21;32.90;82.70
23120;DHT22;11729;50.836;4.330;2023-09-08T15:33:47;32.90;82.70
23120;DHT22;11729;50.836;4.330;2023-09-08T15:36:13;32.80;83.60